Time;durP1;ratioP1;P1;durP2;ratioP2;P2;SDS_P1;SDS_P2;PMS_P1;PMS_P2;Temp;Humidity;BMP_temperature;BMP_pressure;BME280_temperature;BME280_humidity;BME280_pressure;Samples;Min_cycle;Max_cycle;Signal;HPM_P1;HPM_P2
2022/04/24 00:01:02;;;;;;;;;;;;;;;17.73;51.88;98293.84;4480120;32;33479;-81
2022/04/24 00:03:29;;;;;;;;;;;;;;;17.51;52.22;98284.91;4483846;32;33619;-80
2022/04/24 00:05:57;;;;;;;;;;;;;;;17.84;51.44;98282.19;4483938;32;33770;-80
2022/04/24 00:08:24;;;;;;;;;;;;;;;17.57;51.54;98283.84;4484173;32;34793;-80
2022/04/24 00:10:51;;;;;;;;;;;;;;;17.18;53.00;98286.72;4483198;32;34828;-80
2022/04/24 00:13:18;;;;;;;;;;;;;;;17.03;52.79;98278.37;4476934;32;34096;-80
2022/04/24 00:15:46;;;;;;;;;;;;;;;18.15;50.59;98287.34;4483818;32;34246;-80
2022/04/24 00:18:14;;;;;;;;;;;;;;;18.22;50.29;98270.47;4483181;32;34851;-80
2022/04/24 00:20:42;;;;;;;;;;;;;;;17.71;51.20;98276.44;4481183;32;33204;-79
2022/04/24 00:23:10;;;;;;;;;;;;;;;18.20;50.05;98265.31;4483684;32;34238;-79
2022/04/24 00:25:38;;;;;;;;;;;;;;;18.30;49.55;98258.00;4477502;32;33956;-80
2022/04/24 00:28:05;;;;;;;;;;;;;;;18.33;49.34;98249.16;4475365;32;34957;-80
2022/04/24 00:30:32;;;;;;;;;;;;;;;18.20;49.42;98233.81;4475201;32;33404;-82
2022/04/24 00:32:59;;;;;;;;;;;;;;;18.74;48.21;98232.03;4480488;32;34917;-83
2022/04/24 00:35:27;;;;;;;;;;;;;;;18.61;48.45;98225.47;4476993;32;34431;-82
2022/04/24 00:37:54;;;;;;;;;;;;;;;18.36;48.77;98228.06;4467942;32;34997;-80
2022/04/24 00:40:22;;;;;;;;;;;;;;;18.89;47.52;98244.59;4467860;32;34438;-83
2022/04/24 00:42:49;;;;;;;;;;;;;;;18.26;48.92;98245.00;4467874;32;34104;-83
2022/04/24 00:45:17;;;;;;;;;;;;;;;17.78;50.30;98249.16;4469327;32;35219;-83
2022/04/24 00:47:46;;;;;;;;;;;;;;;18.07;49.38;98248.25;4480624;32;34037;-83
2022/04/24 00:50:14;;;;;;;;;;;;;;;18.04;49.76;98242.25;4467739;32;34139;-82
2022/04/24 00:52:41;;;;;;;;;;;;;;;18.46;48.39;98232.94;4477015;32;34981;-83
2022/04/24 00:55:09;;;;;;;;;;;;;;;18.42;48.42;98225.25;4468649;32;34493;-79
2022/04/24 00:57:36;;;;;;;;;;;;;;;18.67;47.65;98225.22;4467992;32;34269;-83
2022/04/24 01:00:04;;;;;;;;;;;;;;;18.55;47.82;98238.78;4467848;32;33196;-83
2022/04/24 01:02:31;;;;;;;;;;;;;;;18.44;48.16;98247.87;4467720;32;35019;-82
2022/04/24 01:04:59;;;;;;;;;;;;;;;18.94;46.77;98240.06;4472158;32;34512;-80
2022/04/24 01:07:26;;;;;;;;;;;;;;;19.09;46.26;98237.78;4468584;32;34410;-80
2022/04/24 01:09:56;;;;;;;;;;;;;;;18.91;46.65;98240.16;4481454;32;32659;-80
2022/04/24 01:12:23;;;;;;;;;;;;;;;18.31;48.04;98243.09;4465629;32;34235;-80
2022/04/24 01:14:51;;;;;;;;;;;;;;;18.48;47.74;98248.63;4470752;32;35371;-80
2022/04/24 01:17:18;;;;;;;;;;;;;;;17.93;48.91;98238.19;4475951;32;34591;-82
2022/04/24 01:19:45;;;;;;;;;;;;;;;17.52;50.11;98239.44;4483277;32;33484;-80
2022/04/24 01:22:13;;;;;;;;;;;;;;;17.59;50.19;98240.13;4465441;32;34965;-80
2022/04/24 01:24:40;;;;;;;;;;;;;;;17.90;49.22;98230.41;4461832;32;34458;-80
2022/04/24 01:27:08;;;;;;;;;;;;;;;16.82;51.93;98234.47;4467698;32;33821;-82
2022/04/24 01:29:36;;;;;;;;;;;;;;;17.56;50.26;98227.09;4483191;32;34042;-79
2022/04/24 01:32:07;;;;;;;;;;;;;;;17.20;50.83;98232.53;4471476;32;34772;-81
2022/04/24 01:34:35;;;;;;;;;;;;;;;15.95;54.57;98231.44;4482254;32;34282;-80
2022/04/24 01:37:03;;;;;;;;;;;;;;;16.76;52.61;98226.78;4482552;32;34186;-83
2022/04/24 01:39:30;;;;;;;;;;;;;;;16.87;52.28;98216.87;4481394;32;33570;-82
2022/04/24 01:41:57;;;;;;;;;;;;;;;17.12;51.27;98208.31;4471347;32;35120;-81
2022/04/24 01:44:24;;;;;;;;;;;;;;;16.39;53.28;98212.00;4481963;32;34168;-80
2022/04/24 01:46:52;;;;;;;;;;;;;;;16.80;52.19;98207.47;4475092;32;34384;-80
2022/04/24 01:49:19;;;;;;;;;;;;;;;16.25;53.45;98203.66;4478934;32;33970;-81
2022/04/24 01:51:48;;;;;;;;;;;;;;;16.38;53.41;98209.44;4478824;32;35331;-80
2022/04/24 01:54:16;;;;;;;;;;;;;;;16.86;52.27;98216.91;4467563;32;34179;-84
2022/04/24 01:56:43;;;;;;;;;;;;;;;15.92;54.57;98216.69;4476723;32;34439;-83
2022/04/24 01:59:10;;;;;;;;;;;;;;;16.61;52.83;98221.91;4476062;32;33403;-82
2022/04/24 02:01:38;;;;;;;;;;;;;;;15.65;55.09;98217.31;4472572;32;34042;-79
2022/04/24 02:04:05;;;;;;;;;;;;;;;16.65;52.77;98210.47;4480301;32;34966;-80
2022/04/24 02:06:33;;;;;;;;;;;;;;;16.65;52.51;98206.09;4481521;32;34799;-83
2022/04/24 02:09:00;;;;;;;;;;;;;;;16.71;52.47;98210.31;4495507;31;33180;-83
2022/04/24 02:11:28;;;;;;;;;;;;;;;16.82;51.98;98215.25;4471457;31;34351;-82
2022/04/24 02:13:55;;;;;;;;;;;;;;;16.76;52.52;98206.69;4482242;32;34244;-82
2022/04/24 02:16:22;;;;;;;;;;;;;;;16.90;51.85;98215.94;4476912;32;34937;-78
2022/04/24 02:18:50;;;;;;;;;;;;;;;16.24;53.32;98222.88;4471373;32;33487;-82
2022/04/24 02:21:17;;;;;;;;;;;;;;;15.31;56.48;98216.28;4468570;32;34115;-80
2022/04/24 02:23:44;;;;;;;;;;;;;;;16.04;54.08;98211.16;4478226;32;33954;-81
2022/04/24 02:26:12;;;;;;;;;;;;;;;16.13;53.93;98217.03;4477802;32;35048;-81
2022/04/24 02:28:39;;;;;;;;;;;;;;;16.28;53.67;98203.56;4473750;32;33428;-82
2022/04/24 02:31:06;;;;;;;;;;;;;;;16.91;51.76;98204.56;4473952;32;34274;-84
2022/04/24 02:33:34;;;;;;;;;;;;;;;15.72;54.68;98188.41;4482158;32;35286;-83
2022/04/24 02:36:01;;;;;;;;;;;;;;;15.24;56.24;98200.78;4472053;32;34109;-80
2022/04/24 02:38:29;;;;;;;;;;;;;;;15.54;55.84;98215.78;4468262;32;34238;-83
2022/04/24 02:40:56;;;;;;;;;;;;;;;15.40;55.86;98196.09;4458095;32;35131;-82
2022/04/24 02:43:23;;;;;;;;;;;;;;;15.15;56.86;98208.78;4480039;32;34603;-82
2022/04/24 02:45:50;;;;;;;;;;;;;;;14.60;58.57;98198.56;4478879;32;34592;-79
2022/04/24 02:48:18;;;;;;;;;;;;;;;15.30;56.61;98200.63;4483876;32;33171;-82
2022/04/24 02:50:45;;;;;;;;;;;;;;;14.40;59.45;98210.25;4478695;32;33836;-79
2022/04/24 02:53:12;;;;;;;;;;;;;;;14.53;59.26;98204.78;4477273;32;35040;-79
2022/04/24 02:55:40;;;;;;;;;;;;;;;13.65;62.06;98212.31;4481320;32;34512;-79
2022/04/24 02:58:07;;;;;;;;;;;;;;;13.60;62.02;98216.75;4478957;32;34366;-78
2022/04/24 03:00:43;;;;;;;;;;;;;;;13.91;60.85;98206.72;4479786;32;35130;-82
2022/04/24 03:03:10;;;;;;;;;;;;;;;13.17;63.88;98214.69;4484316;32;34100;-83
2022/04/24 03:05:39;;;;;;;;;;;;;;;13.85;61.49;98194.63;4483278;32;34837;-83
2022/04/24 03:08:06;;;;;;;;;;;;;;;14.96;57.85;98196.13;4490691;31;33567;-82
2022/04/24 03:10:34;;;;;;;;;;;;;;;14.49;59.05;98184.88;4470459;32;33922;-82
2022/04/24 03:13:01;;;;;;;;;;;;;;;13.71;61.84;98187.91;4483960;32;34087;-80
2022/04/24 03:15:28;;;;;;;;;;;;;;;14.08;60.68;98183.81;4466391;32;34188;-81
2022/04/24 03:17:55;;;;;;;;;;;;;;;13.57;62.67;98175.12;4483793;32;33538;-82
2022/04/24 03:20:23;;;;;;;;;;;;;;;14.16;60.83;98175.03;4480140;32;34912;-82
2022/04/24 03:22:50;;;;;;;;;;;;;;;13.92;61.87;98181.53;4482452;32;34299;-80
2022/04/24 03:25:18;;;;;;;;;;;;;;;13.23;63.00;98185.13;4478910;32;33776;-82
2022/04/24 03:27:45;;;;;;;;;;;;;;;14.42;60.07;98183.22;4479278;32;32408;-81
2022/04/24 03:30:12;;;;;;;;;;;;;;;14.20;60.05;98171.47;4482798;32;33973;-81
2022/04/24 03:32:40;;;;;;;;;;;;;;;13.56;62.24;98169.06;4482750;32;34495;-82
2022/04/24 03:35:11;;;;;;;;;;;;;;;14.00;61.41;98164.84;4464825;32;34631;-82
2022/04/24 03:37:38;;;;;;;;;;;;;;;14.12;61.03;98155.97;4476257;32;33548;-83
2022/04/24 03:40:06;;;;;;;;;;;;;;;13.19;63.48;98168.69;4464753;32;34213;-82
2022/04/24 03:42:33;;;;;;;;;;;;;;;13.29;63.88;98165.09;4483512;32;35270;-82
2022/04/24 03:45:01;;;;;;;;;;;;;;;13.13;64.57;98159.22;4481312;32;34096;-79
2022/04/24 03:47:29;;;;;;;;;;;;;;;13.62;62.78;98157.69;4474736;32;33331;-79
2022/04/24 03:49:56;;;;;;;;;;;;;;;14.07;61.25;98152.59;4468236;32;33779;-79
2022/04/24 03:52:23;;;;;;;;;;;;;;;14.10;60.96;98152.53;4470760;32;35402;-79
2022/04/24 03:54:51;;;;;;;;;;;;;;;14.38;60.21;98162.47;4468618;32;34994;-79
2022/04/24 03:57:18;;;;;;;;;;;;;;;14.72;58.65;98154.88;4482600;32;33131;-79
2022/04/24 03:59:45;;;;;;;;;;;;;;;14.74;58.51;98153.97;4471048;32;34295;-82
2022/04/24 04:02:14;;;;;;;;;;;;;;;15.01;57.72;98149.06;4476226;32;35221;-81
2022/04/24 04:04:41;;;;;;;;;;;;;;;14.37;59.72;98151.19;4469897;32;33966;-80
2022/04/24 04:07:09;;;;;;;;;;;;;;;13.29;62.93;98159.03;4481489;32;33543;-80
2022/04/24 04:09:36;;;;;;;;;;;;;;;13.77;61.74;98151.38;4481527;32;35123;-82
2022/04/24 04:12:06;;;;;;;;;;;;;;;14.21;60.45;98154.97;4482841;32;34214;-80
2022/04/24 04:14:33;;;;;;;;;;;;;;;14.95;58.19;98159.62;4479340;32;34753;-79
2022/04/24 04:17:00;;;;;;;;;;;;;;;14.49;59.12;98160.50;4478831;32;34089;-80
2022/04/24 04:19:32;;;;;;;;;;;;;;;14.71;58.56;98155.78;4481042;32;34050;-83
2022/04/24 04:21:59;;;;;;;;;;;;;;;14.89;58.21;98158.03;4455419;32;34453;-82
2022/04/24 04:24:26;;;;;;;;;;;;;;;14.66;58.85;98155.87;4479216;32;34463;-80
2022/04/24 04:26:55;;;;;;;;;;;;;;;14.17;60.37;98150.66;4481783;32;32561;-82
2022/04/24 04:29:22;;;;;;;;;;;;;;;14.83;59.00;98158.13;4471353;32;33929;-82
2022/04/24 04:31:49;;;;;;;;;;;;;;;15.46;56.71;98151.56;4478130;32;34944;-82
2022/04/24 04:34:17;;;;;;;;;;;;;;;15.56;56.29;98148.66;4453906;32;32614;-80
2022/04/24 04:36:44;;;;;;;;;;;;;;;16.09;54.08;98145.66;4477724;32;33529;-81
2022/04/24 04:39:11;;;;;;;;;;;;;;;14.97;57.70;98153.50;4472129;32;34135;-82
2022/04/24 04:41:40;;;;;;;;;;;;;;;16.21;53.94;98168.03;4478626;32;34373;-81
2022/04/24 04:44:07;;;;;;;;;;;;;;;16.70;52.48;98161.47;4483164;32;33897;-80
2022/04/24 04:46:34;;;;;;;;;;;;;;;17.00;51.75;98162.38;4479186;32;33130;-80
2022/04/24 04:49:01;;;;;;;;;;;;;;;16.13;53.85;98156.91;4482729;32;34367;-80
2022/04/24 04:51:29;;;;;;;;;;;;;;;16.51;53.08;98158.50;4478624;32;34989;-81
2022/04/24 04:53:56;;;;;;;;;;;;;;;16.82;52.21;98153.31;4481170;32;34298;-82
2022/04/24 04:56:23;;;;;;;;;;;;;;;17.38;50.95;98150.75;4475580;32;34338;-80
2022/04/24 04:58:50;;;;;;;;;;;;;;;17.15;51.07;98150.59;4481357;32;33903;-80
2022/04/24 05:01:18;;;;;;;;;;;;;;;17.27;51.06;98147.59;4482664;32;34386;-80
2022/04/24 05:03:45;;;;;;;;;;;;;;;17.03;51.57;98147.44;4483583;32;34027;-80
2022/04/24 05:06:12;;;;;;;;;;;;;;;16.69;52.78;98147.53;4478260;32;33066;-80
2022/04/24 05:08:40;;;;;;;;;;;;;;;17.08;51.60;98160.41;4483650;32;33546;-80
2022/04/24 05:11:08;;;;;;;;;;;;;;;16.72;52.80;98152.69;4479569;32;35292;-82
2022/04/24 05:13:35;;;;;;;;;;;;;;;15.29;56.78;98147.56;4468929;32;34285;-83
2022/04/24 05:16:02;;;;;;;;;;;;;;;16.19;54.58;98138.44;4474028;32;33033;-83
2022/04/24 05:18:30;;;;;;;;;;;;;;;15.44;57.14;98135.91;4483594;32;33678;-80
2022/04/24 05:20:57;;;;;;;;;;;;;;;14.58;59.25;98137.78;4481947;32;34953;-82
2022/04/24 05:23:26;;;;;;;;;;;;;;;14.23;61.00;98145.34;4474708;32;34703;-80
2022/04/24 05:25:53;;;;;;;;;;;;;;;15.33;57.82;98135.28;4474228;32;34038;-80
2022/04/24 05:28:20;;;;;;;;;;;;;;;15.48;57.59;98134.94;4483218;32;34661;-81
2022/04/24 05:30:47;;;;;;;;;;;;;;;16.32;54.96;98137.22;4468984;32;33939;-81
2022/04/24 05:33:15;;;;;;;;;;;;;;;15.66;56.31;98138.06;4482290;32;33943;-82
2022/04/24 05:35:43;;;;;;;;;;;;;;;14.50;60.17;98139.63;4470299;32;33070;-81
2022/04/24 05:38:11;;;;;;;;;;;;;;;15.85;56.62;98128.84;4483130;32;34139;-82
2022/04/24 05:40:38;;;;;;;;;;;;;;;15.97;56.13;98130.31;4482143;32;34578;-81
2022/04/24 05:43:05;;;;;;;;;;;;;;;15.68;56.90;98136.25;4482638;32;34153;-82
2022/04/24 05:45:32;;;;;;;;;;;;;;;15.66;56.83;98146.75;4476679;32;34382;-81
2022/04/24 05:48:00;;;;;;;;;;;;;;;16.47;54.52;98155.09;4482603;32;34901;-83
2022/04/24 05:50:27;;;;;;;;;;;;;;;16.03;55.86;98151.91;4477605;32;34048;-80
2022/04/24 05:52:55;;;;;;;;;;;;;;;16.58;54.36;98159.19;4481764;32;34076;-78
2022/04/24 05:55:23;;;;;;;;;;;;;;;15.69;56.84;98157.13;4478461;32;33308;-79
2022/04/24 05:57:50;;;;;;;;;;;;;;;15.88;56.47;98157.53;4476676;32;33816;-80
2022/04/24 06:00:18;;;;;;;;;;;;;;;16.03;55.96;98151.06;4467416;32;34527;-81
2022/04/24 06:02:51;;;;;;;;;;;;;;;14.90;59.49;98158.88;4467241;32;34252;-80
2022/04/24 06:05:18;;;;;;;;;;;;;;;14.97;59.69;98161.31;4473179;32;33681;-80
2022/04/24 06:07:46;;;;;;;;;;;;;;;15.47;58.60;98151.50;4482901;32;34846;-80
2022/04/24 06:10:13;;;;;;;;;;;;;;;15.58;58.10;98159.94;4482951;32;34090;-80
2022/04/24 06:12:48;;;;;;;;;;;;;;;16.22;55.98;98151.44;4482504;32;33911;-80
2022/04/24 06:15:16;;;;;;;;;;;;;;;15.81;56.85;98146.38;4468270;32;34354;-80
2022/04/24 06:17:43;;;;;;;;;;;;;;;15.55;57.92;98148.72;4481726;32;34279;-80
2022/04/24 06:20:11;;;;;;;;;;;;;;;16.37;55.59;98145.81;4468710;32;34251;-80
2022/04/24 06:22:45;;;;;;;;;;;;;;;17.26;53.28;98145.91;4481904;32;34884;-81
2022/04/24 06:25:31;;;;;;;;;;;;;;;16.27;55.66;98142.56;4468009;32;34011;-81
2022/04/24 06:27:59;;;;;;;;;;;;;;;16.34;55.34;98148.50;4478635;32;33586;-81
2022/04/24 06:30:40;;;;;;;;;;;;;;;16.98;53.92;98138.88;4461553;32;34925;-81
2022/04/24 06:33:08;;;;;;;;;;;;;;;16.66;54.86;98152.00;4467602;32;34832;-80
2022/04/24 06:35:35;;;;;;;;;;;;;;;16.54;55.36;98143.56;4465134;32;32339;-80
2022/04/24 06:38:03;;;;;;;;;;;;;;;16.71;54.98;98139.66;4467898;32;34146;-84
2022/04/24 06:40:30;;;;;;;;;;;;;;;15.83;57.17;98148.94;4468201;32;35372;-79
2022/04/24 06:42:58;;;;;;;;;;;;;;;16.66;55.13;98141.53;4481998;32;33973;-83
2022/04/24 06:45:27;;;;;;;;;;;;;;;17.02;54.63;98145.75;4482507;32;33957;-82
2022/04/24 06:47:55;;;;;;;;;;;;;;;17.05;54.18;98130.81;4468604;32;34192;-80
2022/04/24 06:50:23;;;;;;;;;;;;;;;16.22;56.63;98135.75;4468093;32;34150;-81
2022/04/24 06:52:57;;;;;;;;;;;;;;;17.12;54.19;98127.13;4471580;32;33924;-81
2022/04/24 06:55:25;;;;;;;;;;;;;;;18.17;51.45;98121.13;4467144;32;34231;-79
2022/04/24 06:57:52;;;;;;;;;;;;;;;17.46;53.07;98114.72;4480958;32;34137;-80
2022/04/24 07:00:20;;;;;;;;;;;;;;;18.77;50.29;98113.75;4467762;32;34015;-83
2022/04/24 07:02:48;;;;;;;;;;;;;;;18.30;50.77;98108.44;4464397;32;34177;-80
2022/04/24 07:05:15;;;;;;;;;;;;;;;17.83;52.03;98117.91;4477868;32;33726;-80
2022/04/24 07:07:43;;;;;;;;;;;;;;;16.94;54.42;98116.31;4453051;32;35046;-81
2022/04/24 07:10:10;;;;;;;;;;;;;;;17.21;54.45;98117.25;4468452;32;35258;-80
2022/04/24 07:12:48;;;;;;;;;;;;;;;17.42;54.49;98114.84;4459024;32;34130;-81
2022/04/24 07:15:15;;;;;;;;;;;;;;;17.66;53.68;98110.59;4464438;32;33892;-82
2022/04/24 07:17:43;;;;;;;;;;;;;;;17.85;53.15;98114.34;4481918;32;33966;-82
2022/04/24 07:20:11;;;;;;;;;;;;;;;17.79;53.31;98100.59;4474631;32;35247;-81
2022/04/24 07:22:41;;;;;;;;;;;;;;;18.51;52.01;98117.31;4466204;32;34347;-83
2022/04/24 07:25:09;;;;;;;;;;;;;;;18.66;51.63;98100.12;4465738;32;32835;-80
2022/04/24 07:27:36;;;;;;;;;;;;;;;18.26;51.49;98101.59;4460696;32;34078;-80
2022/04/24 07:30:04;;;;;;;;;;;;;;;18.66;50.78;98101.00;4461886;32;34613;-81
2022/04/24 07:32:41;;;;;;;;;;;;;;;17.93;52.86;98103.59;4468798;32;34039;-82
2022/04/24 07:35:09;;;;;;;;;;;;;;;17.60;53.83;98105.53;4468649;32;33366;-79
2022/04/24 07:37:36;;;;;;;;;;;;;;;17.53;53.77;98104.88;4468720;32;34159;-82
2022/04/24 07:40:04;;;;;;;;;;;;;;;18.80;51.10;98099.66;4467813;32;34288;-82
2022/04/24 07:42:42;;;;;;;;;;;;;;;19.33;50.22;98100.22;4468638;32;33849;-82
2022/04/24 07:45:09;;;;;;;;;;;;;;;18.76;51.56;98109.44;4453593;32;32986;-82
2022/04/24 07:47:37;;;;;;;;;;;;;;;18.57;51.53;98093.47;4459274;32;34239;-83
2022/04/24 07:50:04;;;;;;;;;;;;;;;17.52;54.48;98111.03;4468016;32;35258;-84
2022/04/24 07:52:32;;;;;;;;;;;;;;;17.58;54.13;98117.81;4468462;32;34026;-82
2022/04/24 07:54:59;;;;;;;;;;;;;;;18.37;52.67;98104.69;4468211;32;34586;-83
2022/04/24 07:57:26;;;;;;;;;;;;;;;18.01;53.34;98111.22;4467969;32;34306;-83
2022/04/24 07:59:53;;;;;;;;;;;;;;;18.01;53.54;98105.97;4467321;32;34925;-82
2022/04/24 08:02:21;;;;;;;;;;;;;;;18.69;52.08;98115.78;4467850;32;35584;-83
2022/04/24 08:04:48;;;;;;;;;;;;;;;18.80;51.21;98105.78;4454240;32;33909;-82
2022/04/24 08:07:17;;;;;;;;;;;;;;;18.94;51.06;98085.09;4472857;32;34889;-80
2022/04/24 08:09:44;;;;;;;;;;;;;;;19.30;50.22;98087.19;4463057;32;34256;-81
2022/04/24 08:12:12;;;;;;;;;;;;;;;20.05;48.09;98091.19;4481342;32;34933;-81
2022/04/24 08:14:39;;;;;;;;;;;;;;;19.63;49.38;98089.44;4473280;32;33216;-81
2022/04/24 08:17:07;;;;;;;;;;;;;;;19.16;49.99;98084.25;4484005;32;34262;-82
2022/04/24 08:19:34;;;;;;;;;;;;;;;19.28;49.97;98082.91;4482900;32;34973;-82
2022/04/24 08:22:02;;;;;;;;;;;;;;;20.32;48.12;98074.19;4440936;32;33784;-80
2022/04/24 08:24:29;;;;;;;;;;;;;;;20.07;47.19;98069.12;4483512;32;33425;-82
2022/04/24 08:26:57;;;;;;;;;;;;;;;20.35;47.54;98060.03;4483771;32;34884;-82
2022/04/24 08:29:24;;;;;;;;;;;;;;;20.40;47.03;98065.94;4476029;32;34171;-83
2022/04/24 08:31:51;;;;;;;;;;;;;;;20.17;46.96;98054.66;4479564;32;34884;-82
2022/04/24 08:34:19;;;;;;;;;;;;;;;20.46;48.18;98070.97;4472142;32;33599;-84
2022/04/24 08:36:46;;;;;;;;;;;;;;;20.46;46.61;98059.56;4475944;32;33976;-82
2022/04/24 08:39:14;;;;;;;;;;;;;;;21.14;46.79;98047.66;4468642;32;34518;-83
2022/04/24 08:41:42;;;;;;;;;;;;;;;20.55;46.92;98049.50;4477894;32;34630;-85
2022/04/24 08:44:09;;;;;;;;;;;;;;;21.54;45.41;98036.03;4483432;32;33294;-83
2022/04/24 08:46:36;;;;;;;;;;;;;;;20.65;46.76;98042.03;4466731;32;33777;-83
2022/04/24 08:49:04;;;;;;;;;;;;;;;20.95;45.91;98028.34;4469227;32;35142;-84
2022/04/24 08:51:31;;;;;;;;;;;;;;;20.89;46.43;98040.88;4463656;32;34377;-83
2022/04/24 08:53:59;;;;;;;;;;;;;;;21.67;44.61;98025.75;4463271;32;33427;-82
2022/04/24 08:56:26;;;;;;;;;;;;;;;21.62;43.37;98025.94;4477613;32;34636;-82
2022/04/24 08:58:53;;;;;;;;;;;;;;;21.56;44.09;98025.41;4482946;32;34497;-82
2022/04/24 09:01:22;;;;;;;;;;;;;;;22.37;42.20;98025.69;4464812;32;34372;-81
2022/04/24 09:03:50;;;;;;;;;;;;;;;22.43;42.41;98017.44;4470574;32;32890;-82
2022/04/24 09:06:21;;;;;;;;;;;;;;;22.13;40.92;98015.44;4474333;32;34329;-81
2022/04/24 09:08:48;;;;;;;;;;;;;;;22.16;41.08;98014.44;4483383;32;34746;-81
2022/04/24 09:11:25;;;;;;;;;;;;;;;22.69;39.32;98003.66;4482592;32;34135;-82
2022/04/24 09:16:46;;;;;;;;;;;;;;;22.29;40.09;98003.16;4469907;32;34021;-80
2022/04/24 09:19:20;;;;;;;;;;;;;;;22.61;39.16;97991.78;4478153;32;35358;-80
2022/04/24 09:21:48;;;;;;;;;;;;;;;22.07;40.82;97994.66;4467312;32;33867;-80
2022/04/24 09:24:15;;;;;;;;;;;;;;;22.19;38.65;97988.75;4459854;32;33582;-82
2022/04/24 09:26:49;;;;;;;;;;;;;;;22.39;37.38;98003.53;4473766;32;33844;-81
2022/04/24 09:29:17;;;;;;;;;;;;;;;22.02;38.04;97999.31;4469408;32;34401;-79
2022/04/24 09:31:45;;;;;;;;;;;;;;;22.74;37.00;97993.69;4458270;32;35304;-83
2022/04/24 09:34:13;;;;;;;;;;;;;;;23.05;37.53;98007.88;4478528;32;33333;-80
2022/04/24 09:36:41;;;;;;;;;;;;;;;22.72;36.72;97990.25;4475826;32;35482;-82
2022/04/24 09:39:08;;;;;;;;;;;;;;;23.41;35.79;97993.47;4463852;32;33333;-82
2022/04/24 09:41:36;;;;;;;;;;;;;;;23.17;36.48;97996.59;4471702;32;34685;-81
2022/04/24 09:44:13;;;;;;;;;;;;;;;23.38;37.28;97993.66;4476515;32;33366;-82
2022/04/24 09:46:40;;;;;;;;;;;;;;;22.91;36.37;97997.16;4472004;32;35065;-76
2022/04/24 09:49:11;;;;;;;;;;;;;;;22.20;35.73;97985.19;4473122;32;35530;-81
2022/04/24 09:51:49;;;;;;;;;;;;;;;21.80;36.29;97984.59;4448436;32;34866;-80
2022/04/24 09:54:19;;;;;;;;;;;;;;;22.06;35.53;97985.03;4468206;32;33730;-80
2022/04/24 09:56:46;;;;;;;;;;;;;;;22.48;34.93;97992.47;4468305;32;34947;-80
2022/04/24 09:59:14;;;;;;;;;;;;;;;22.72;33.63;97995.53;4479405;32;34956;-80
2022/04/24 10:01:42;;;;;;;;;;;;;;;22.21;35.00;97994.81;4465865;32;33989;-80
2022/04/24 10:04:10;;;;;;;;;;;;;;;21.99;35.39;98010.03;4481265;32;33183;-82
2022/04/24 10:06:40;;;;;;;;;;;;;;;22.27;35.00;97994.47;4462540;32;34263;-79
2022/04/24 10:09:07;;;;;;;;;;;;;;;21.84;35.50;98023.06;4482005;32;34294;-79
2022/04/24 10:11:35;;;;;;;;;;;;;;;21.53;36.53;98015.00;4468032;32;32594;-82
2022/04/24 10:14:03;;;;;;;;;;;;;;;21.56;35.84;98017.50;4483064;32;33321;-85
2022/04/24 10:16:39;;;;;;;;;;;;;;;21.23;37.28;98022.62;4468576;32;34370;-83
2022/04/24 10:19:33;;;;;;;;;;;;;;;21.14;37.39;98026.56;4474793;32;35246;-84
2022/04/24 10:22:00;;;;;;;;;;;;;;;21.27;37.00;98030.28;4476421;32;35275;-77
2022/04/24 10:24:37;;;;;;;;;;;;;;;20.64;38.60;98035.03;4476997;32;33565;-80
2022/04/24 10:27:05;;;;;;;;;;;;;;;21.25;38.41;98032.16;4475632;32;33947;-80
2022/04/24 10:29:32;;;;;;;;;;;;;;;20.81;39.99;98019.31;4476607;32;34565;-79
2022/04/24 10:32:00;;;;;;;;;;;;;;;21.15;40.21;98044.06;4473134;32;34082;-80
2022/04/24 10:34:38;;;;;;;;;;;;;;;20.89;39.51;98038.25;4481990;32;33477;-79
2022/04/24 10:37:06;;;;;;;;;;;;;;;20.50;40.14;98043.59;4481834;32;34741;-83
2022/04/24 10:39:34;;;;;;;;;;;;;;;20.78;39.70;98037.91;4476761;32;35069;-82
2022/04/24 10:42:12;;;;;;;;;;;;;;;21.32;38.27;98030.91;4466907;32;34895;-80
2022/04/24 10:44:50;;;;;;;;;;;;;;;21.53;37.88;98030.84;4474928;32;34209;-82
2022/04/24 10:47:17;;;;;;;;;;;;;;;21.18;38.63;98024.63;4477972;32;33815;-83
2022/04/24 10:49:45;;;;;;;;;;;;;;;22.39;36.35;98022.03;4476290;32;34374;-81
2022/04/24 10:52:12;;;;;;;;;;;;;;;21.38;37.93;98014.00;4475112;32;33642;-82
2022/04/24 10:54:40;;;;;;;;;;;;;;;21.26;38.55;98023.31;4478704;32;33095;-81
2022/04/24 10:57:16;;;;;;;;;;;;;;;21.99;37.02;98012.66;4460814;32;34107;-81
2022/04/24 10:59:52;;;;;;;;;;;;;;;21.20;39.39;98014.84;4473773;32;34311;-84
2022/04/24 11:02:21;;;;;;;;;;;;;;;21.44;38.56;98021.63;4473042;32;34184;-82
2022/04/24 11:05:01;;;;;;;;;;;;;;;21.75;37.99;98023.56;4466409;32;33540;-82
2022/04/24 11:07:31;;;;;;;;;;;;;;;21.30;38.78;98030.16;4466231;32;34327;-79
2022/04/24 11:10:03;;;;;;;;;;;;;;;21.95;37.76;98037.50;4480557;32;34285;-81
2022/04/24 11:12:32;;;;;;;;;;;;;;;21.42;38.86;98041.91;4483890;32;34220;-80
2022/04/24 11:15:06;;;;;;;;;;;;;;;21.76;37.77;98038.44;4475204;32;34367;-81
2022/04/24 11:17:33;;;;;;;;;;;;;;;22.11;37.15;98027.84;4469307;32;34844;-80
2022/04/24 11:20:06;;;;;;;;;;;;;;;21.59;38.17;98035.78;4469048;32;34097;-80
2022/04/24 11:22:34;;;;;;;;;;;;;;;21.70;38.11;98036.09;4469785;32;34761;-80
2022/04/24 11:25:01;;;;;;;;;;;;;;;21.45;38.63;98039.12;4467776;32;33448;-82
2022/04/24 11:27:28;;;;;;;;;;;;;;;22.10;37.64;98042.84;4473498;32;34251;-84
2022/04/24 11:29:56;;;;;;;;;;;;;;;22.16;37.31;98043.47;4466074;32;35158;-82
2022/04/24 11:32:24;;;;;;;;;;;;;;;22.67;37.39;98045.16;4462847;32;34211;-80
2022/04/24 11:34:52;;;;;;;;;;;;;;;22.44;37.17;98049.03;4480171;32;33391;-83
2022/04/24 11:37:22;;;;;;;;;;;;;;;22.69;36.61;98045.06;4483907;32;34713;-82
2022/04/24 11:39:49;;;;;;;;;;;;;;;22.58;36.94;98045.66;4469989;32;34275;-81
2022/04/24 11:42:16;;;;;;;;;;;;;;;21.89;38.89;98045.72;4483974;32;34111;-81
2022/04/24 11:50:17;;;;;;;;;;;;;;;21.95;39.03;98043.63;4473847;32;34297;-81
2022/04/24 11:53:04;;;;;;;;;;;;;;;22.15;39.18;98039.16;4475944;32;34240;-81
2022/04/24 11:58:20;;;;;;;;;;;;;;;21.83;40.28;98016.09;4471734;32;34016;-81
2022/04/24 12:00:48;;;;;;;;;;;;;;;22.28;39.45;98030.50;4483764;32;35276;-83
2022/04/24 12:03:15;;;;;;;;;;;;;;;22.75;38.95;98026.25;4483847;32;34206;-81
2022/04/24 12:05:43;;;;;;;;;;;;;;;22.50;38.83;98032.00;4469065;32;33633;-82
2022/04/24 12:08:13;;;;;;;;;;;;;;;22.14;39.38;98025.09;4483667;32;34395;-81
2022/04/24 12:10:44;;;;;;;;;;;;;;;22.12;39.87;98016.34;4470272;32;34487;-81
2022/04/24 12:13:13;;;;;;;;;;;;;;;22.02;39.97;97994.88;4484043;32;35099;-81
2022/04/24 12:15:51;;;;;;;;;;;;;;;22.80;38.77;98000.41;4482931;32;33141;-81
2022/04/24 12:18:22;;;;;;;;;;;;;;;22.51;39.46;97994.09;4483998;32;34583;-81
2022/04/24 12:20:49;;;;;;;;;;;;;;;22.45;39.57;97987.34;4483811;32;35413;-81
2022/04/24 12:23:17;;;;;;;;;;;;;;;22.89;39.48;97996.41;4482978;32;34832;-82
2022/04/24 12:25:50;;;;;;;;;;;;;;;23.07;39.35;98008.66;4484053;32;33517;-82
2022/04/24 12:28:32;;;;;;;;;;;;;;;22.84;38.87;97994.00;4483784;32;34444;-81
2022/04/24 12:31:01;;;;;;;;;;;;;;;22.80;38.78;97998.63;4483799;32;35341;-81
2022/04/24 12:33:30;;;;;;;;;;;;;;;23.44;37.81;97998.59;4469858;32;34713;-81
2022/04/24 12:36:07;;;;;;;;;;;;;;;23.09;38.44;97998.81;4459607;32;33533;-81
2022/04/24 12:38:34;;;;;;;;;;;;;;;23.02;38.45;98003.59;4468231;32;34123;-82
2022/04/24 12:41:01;;;;;;;;;;;;;;;22.57;38.25;98001.66;4468348;32;34393;-81
2022/04/24 12:43:29;;;;;;;;;;;;;;;22.56;38.13;97997.34;4471386;32;35400;-81
2022/04/24 12:45:57;;;;;;;;;;;;;;;22.73;38.72;97975.25;4469578;32;34209;-81
2022/04/24 12:48:24;;;;;;;;;;;;;;;22.10;39.45;97965.47;4484046;32;34231;-81
2022/04/24 12:50:52;;;;;;;;;;;;;;;22.32;38.96;97971.31;4483779;32;34897;-81
2022/04/24 12:53:19;;;;;;;;;;;;;;;22.02;39.37;97979.06;4483515;32;35035;-81
2022/04/24 12:55:47;;;;;;;;;;;;;;;22.26;38.85;97986.63;4483690;32;34337;-81
2022/04/24 12:58:14;;;;;;;;;;;;;;;22.81;38.64;97987.13;4469769;31;34090;-81
2022/04/24 13:00:43;;;;;;;;;;;;;;;22.92;37.90;97977.75;4467991;32;35146;-81
2022/04/24 13:03:12;;;;;;;;;;;;;;;23.63;37.00;97978.03;4455267;32;34231;-81
2022/04/24 13:05:42;;;;;;;;;;;;;;;23.08;36.96;97981.25;4467443;32;34215;-81